sensor_id;sensor_type;location;lat;lon;timestamp;temperature;humidity
32476;DHT22;18929;48.008;10.882;2023-08-07T00:00:08;12.70;99.90
32476;DHT22;18929;48.008;10.882;2023-08-07T00:02:37;12.80;99.90
32476;DHT22;18929;48.008;10.882;2023-08-07T00:05:04;12.70;99.90
32476;DHT22;18929;48.008;10.882;2023-08-07T00:07:31;12.60;99.90
32476;DHT22;18929;48.008;10.882;2023-08-07T00:09:58;12.90;99.90
32476;DHT22;18929;48.008;10.882;2023-08-07T00:12:26;12.80;99.90
32476;DHT22;18929;48.008;10.882;2023-08-07T00:14:53;12.30;99.90
32476;DHT22;18929;48.008;10.882;2023-08-07T00:17:20;12.70;99.90
32476;DHT22;18929;48.008;10.882;2023-08-07T00:19:48;12.50;99.90
32476;DHT22;18929;48.008;10.882;2023-08-07T00:22:15;12.50;99.90
32476;DHT22;18929;48.008;10.882;2023-08-07T00:24:41;12.80;99.90
32476;DHT22;18929;48.008;10.882;2023-08-07T00:27:08;12.70;99.90
32476;DHT22;18929;48.008;10.882;2023-08-07T00:29:36;12.40;99.90
32476;DHT22;18929;48.008;10.882;2023-08-07T00:32:03;12.40;99.90
32476;DHT22;18929;48.008;10.882;2023-08-07T00:34:29;12.70;99.90
32476;DHT22;18929;48.008;10.882;2023-08-07T00:36:58;12.60;99.90
32476;DHT22;18929;48.008;10.882;2023-08-07T00:39:24;12.40;99.90
32476;DHT22;18929;48.008;10.882;2023-08-07T00:41:52;12.30;99.90
32476;DHT22;18929;48.008;10.882;2023-08-07T00:44:19;12.60;99.90
32476;DHT22;18929;48.008;10.882;2023-08-07T00:46:46;12.30;99.90
32476;DHT22;18929;48.008;10.882;2023-08-07T00:49:13;12.50;99.90
32476;DHT22;18929;48.008;10.882;2023-08-07T00:51:40;12.70;99.90
32476;DHT22;18929;48.008;10.882;2023-08-07T00:54:08;12.70;99.90
32476;DHT22;18929;48.008;10.882;2023-08-07T00:56:36;12.60;99.90
32476;DHT22;18929;48.008;10.882;2023-08-07T00:59:03;12.60;99.90
32476;DHT22;18929;48.008;10.882;2023-08-07T01:01:30;12.60;99.90
32476;DHT22;18929;48.008;10.882;2023-08-07T01:03:57;12.40;99.90
32476;DHT22;18929;48.008;10.882;2023-08-07T01:06:23;12.50;99.90
32476;DHT22;18929;48.008;10.882;2023-08-07T01:08:50;12.20;99.90
32476;DHT22;18929;48.008;10.882;2023-08-07T01:11:20;12.30;99.90
32476;DHT22;18929;48.008;10.882;2023-08-07T01:13:51;12.20;99.90
32476;DHT22;18929;48.008;10.882;2023-08-07T01:16:26;12.40;99.90
32476;DHT22;18929;48.008;10.882;2023-08-07T01:18:53;12.50;99.90
32476;DHT22;18929;48.008;10.882;2023-08-07T01:21:21;12.70;99.90
32476;DHT22;18929;48.008;10.882;2023-08-07T01:23:49;12.40;99.90
32476;DHT22;18929;48.008;10.882;2023-08-07T01:26:17;12.50;99.90
32476;DHT22;18929;48.008;10.882;2023-08-07T01:28:46;12.60;99.90
32476;DHT22;18929;48.008;10.882;2023-08-07T01:31:23;12.60;99.90
32476;DHT22;18929;48.008;10.882;2023-08-07T01:33:53;12.60;99.90
32476;DHT22;18929;48.008;10.882;2023-08-07T01:36:23;12.60;99.90
32476;DHT22;18929;48.008;10.882;2023-08-07T01:38:52;12.40;99.90
32476;DHT22;18929;48.008;10.882;2023-08-07T01:41:20;12.60;99.90
32476;DHT22;18929;48.008;10.882;2023-08-07T01:43:47;12.60;99.90
32476;DHT22;18929;48.008;10.882;2023-08-07T01:46:13;12.70;99.90
32476;DHT22;18929;48.008;10.882;2023-08-07T01:48:40;12.80;99.90
32476;DHT22;18929;48.008;10.882;2023-08-07T01:51:09;12.70;99.90
32476;DHT22;18929;48.008;10.882;2023-08-07T01:53:36;12.50;99.90
32476;DHT22;18929;48.008;10.882;2023-08-07T01:56:04;12.50;99.90
32476;DHT22;18929;48.008;10.882;2023-08-07T01:58:31;12.40;99.90
32476;DHT22;18929;48.008;10.882;2023-08-07T02:00:58;12.50;99.90
32476;DHT22;18929;48.008;10.882;2023-08-07T02:03:25;12.30;99.90
32476;DHT22;18929;48.008;10.882;2023-08-07T02:05:52;12.50;99.90
32476;DHT22;18929;48.008;10.882;2023-08-07T02:08:19;12.40;99.90
32476;DHT22;18929;48.008;10.882;2023-08-07T02:10:46;12.30;99.90
32476;DHT22;18929;48.008;10.882;2023-08-07T02:13:14;12.60;99.90
32476;DHT22;18929;48.008;10.882;2023-08-07T02:15:41;12.40;99.90
32476;DHT22;18929;48.008;10.882;2023-08-07T02:18:08;12.60;99.90
32476;DHT22;18929;48.008;10.882;2023-08-07T02:20:34;11.90;99.90
32476;DHT22;18929;48.008;10.882;2023-08-07T02:23:01;12.40;99.90
32476;DHT22;18929;48.008;10.882;2023-08-07T02:25:28;12.40;99.90
32476;DHT22;18929;48.008;10.882;2023-08-07T02:27:55;12.40;99.90
32476;DHT22;18929;48.008;10.882;2023-08-07T02:30:23;12.20;99.90
32476;DHT22;18929;48.008;10.882;2023-08-07T02:32:50;12.00;99.90
32476;DHT22;18929;48.008;10.882;2023-08-07T02:35:16;12.30;99.90
32476;DHT22;18929;48.008;10.882;2023-08-07T02:37:43;12.30;99.90
32476;DHT22;18929;48.008;10.882;2023-08-07T02:40:10;12.20;99.90
32476;DHT22;18929;48.008;10.882;2023-08-07T02:42:40;12.50;99.90
32476;DHT22;18929;48.008;10.882;2023-08-07T02:45:07;12.40;99.90
32476;DHT22;18929;48.008;10.882;2023-08-07T02:47:36;12.40;99.90
32476;DHT22;18929;48.008;10.882;2023-08-07T02:50:03;12.40;99.90
32476;DHT22;18929;48.008;10.882;2023-08-07T02:52:29;12.10;99.90
32476;DHT22;18929;48.008;10.882;2023-08-07T02:54:56;12.30;99.90
32476;DHT22;18929;48.008;10.882;2023-08-07T02:57:23;12.30;99.90
32476;DHT22;18929;48.008;10.882;2023-08-07T02:59:50;12.30;99.90
32476;DHT22;18929;48.008;10.882;2023-08-07T03:02:17;12.00;99.90
32476;DHT22;18929;48.008;10.882;2023-08-07T03:04:45;12.10;99.90
32476;DHT22;18929;48.008;10.882;2023-08-07T03:07:12;12.30;99.90
32476;DHT22;18929;48.008;10.882;2023-08-07T03:09:39;12.40;99.90
32476;DHT22;18929;48.008;10.882;2023-08-07T03:12:06;12.40;99.90
32476;DHT22;18929;48.008;10.882;2023-08-07T03:14:33;12.50;99.90
32476;DHT22;18929;48.008;10.882;2023-08-07T03:16:59;12.20;99.90
32476;DHT22;18929;48.008;10.882;2023-08-07T03:19:26;12.30;99.90
32476;DHT22;18929;48.008;10.882;2023-08-07T03:21:54;12.50;99.90
32476;DHT22;18929;48.008;10.882;2023-08-07T03:24:21;12.40;99.90
32476;DHT22;18929;48.008;10.882;2023-08-07T03:26:48;12.40;99.90
32476;DHT22;18929;48.008;10.882;2023-08-07T03:29:15;12.30;99.90
32476;DHT22;18929;48.008;10.882;2023-08-07T03:31:42;12.40;99.90
32476;DHT22;18929;48.008;10.882;2023-08-07T03:34:09;12.50;99.90
32476;DHT22;18929;48.008;10.882;2023-08-07T03:36:35;12.20;99.90
32476;DHT22;18929;48.008;10.882;2023-08-07T03:39:03;12.40;99.90
32476;DHT22;18929;48.008;10.882;2023-08-07T03:41:30;12.30;99.90
32476;DHT22;18929;48.008;10.882;2023-08-07T03:43:57;12.20;99.90
32476;DHT22;18929;48.008;10.882;2023-08-07T03:46:24;12.30;99.90
32476;DHT22;18929;48.008;10.882;2023-08-07T03:48:51;12.30;99.90
32476;DHT22;18929;48.008;10.882;2023-08-07T03:51:17;12.50;99.90
32476;DHT22;18929;48.008;10.882;2023-08-07T03:53:44;12.40;99.90
32476;DHT22;18929;48.008;10.882;2023-08-07T03:56:12;12.20;99.90
32476;DHT22;18929;48.008;10.882;2023-08-07T03:58:39;12.30;99.90
32476;DHT22;18929;48.008;10.882;2023-08-07T04:01:06;12.40;99.90
32476;DHT22;18929;48.008;10.882;2023-08-07T04:06:04;12.00;99.90
32476;DHT22;18929;48.008;10.882;2023-08-07T04:08:31;12.30;99.90
32476;DHT22;18929;48.008;10.882;2023-08-07T04:10:59;12.30;99.90
32476;DHT22;18929;48.008;10.882;2023-08-07T04:13:27;12.40;99.90
32476;DHT22;18929;48.008;10.882;2023-08-07T04:15:54;12.30;99.90
32476;DHT22;18929;48.008;10.882;2023-08-07T04:18:21;12.10;99.90
32476;DHT22;18929;48.008;10.882;2023-08-07T04:20:48;12.10;99.90
32476;DHT22;18929;48.008;10.882;2023-08-07T04:23:15;12.10;99.90
32476;DHT22;18929;48.008;10.882;2023-08-07T04:25:42;12.20;99.90
32476;DHT22;18929;48.008;10.882;2023-08-07T04:28:09;12.20;99.90
32476;DHT22;18929;48.008;10.882;2023-08-07T04:30:37;12.20;99.90
32476;DHT22;18929;48.008;10.882;2023-08-07T04:33:05;12.30;99.90
32476;DHT22;18929;48.008;10.882;2023-08-07T04:35:32;12.10;99.90
32476;DHT22;18929;48.008;10.882;2023-08-07T04:37:59;12.00;99.90
32476;DHT22;18929;48.008;10.882;2023-08-07T04:40:26;11.80;99.90
32476;DHT22;18929;48.008;10.882;2023-08-07T04:42:53;12.10;99.90
32476;DHT22;18929;48.008;10.882;2023-08-07T04:45:20;12.20;99.90
32476;DHT22;18929;48.008;10.882;2023-08-07T04:47:48;12.20;99.90
32476;DHT22;18929;48.008;10.882;2023-08-07T04:50:15;12.00;99.90
32476;DHT22;18929;48.008;10.882;2023-08-07T04:52:41;12.00;99.90
32476;DHT22;18929;48.008;10.882;2023-08-07T04:55:08;12.00;99.90
32476;DHT22;18929;48.008;10.882;2023-08-07T04:57:35;11.70;99.90
32476;DHT22;18929;48.008;10.882;2023-08-07T05:00:02;12.00;99.90
32476;DHT22;18929;48.008;10.882;2023-08-07T05:02:29;12.00;99.90
32476;DHT22;18929;48.008;10.882;2023-08-07T05:04:57;12.10;99.90
32476;DHT22;18929;48.008;10.882;2023-08-07T05:07:24;12.10;99.90
32476;DHT22;18929;48.008;10.882;2023-08-07T05:09:51;12.10;99.90
32476;DHT22;18929;48.008;10.882;2023-08-07T05:12:19;11.70;99.90
32476;DHT22;18929;48.008;10.882;2023-08-07T05:14:46;11.90;99.90
32476;DHT22;18929;48.008;10.882;2023-08-07T05:17:12;12.10;99.90
32476;DHT22;18929;48.008;10.882;2023-08-07T05:19:39;12.00;99.90
32476;DHT22;18929;48.008;10.882;2023-08-07T05:22:07;12.00;99.90
32476;DHT22;18929;48.008;10.882;2023-08-07T05:24:34;12.20;99.90
32476;DHT22;18929;48.008;10.882;2023-08-07T05:27:04;12.10;99.90
32476;DHT22;18929;48.008;10.882;2023-08-07T05:29:31;12.00;99.90
32476;DHT22;18929;48.008;10.882;2023-08-07T05:31:58;12.00;99.90
32476;DHT22;18929;48.008;10.882;2023-08-07T05:34:33;12.20;99.90
32476;DHT22;18929;48.008;10.882;2023-08-07T05:36:59;12.00;99.90
32476;DHT22;18929;48.008;10.882;2023-08-07T05:39:28;12.10;99.90
32476;DHT22;18929;48.008;10.882;2023-08-07T05:41:54;12.20;99.90
32476;DHT22;18929;48.008;10.882;2023-08-07T05:44:23;12.20;99.90
32476;DHT22;18929;48.008;10.882;2023-08-07T05:46:49;12.40;99.90
32476;DHT22;18929;48.008;10.882;2023-08-07T05:49:16;12.50;99.90
32476;DHT22;18929;48.008;10.882;2023-08-07T05:51:43;12.30;99.90
32476;DHT22;18929;48.008;10.882;2023-08-07T05:54:10;12.80;99.90
32476;DHT22;18929;48.008;10.882;2023-08-07T05:56:38;12.80;99.90
32476;DHT22;18929;48.008;10.882;2023-08-07T05:59:05;13.00;99.90
32476;DHT22;18929;48.008;10.882;2023-08-07T06:01:31;13.40;99.90
32476;DHT22;18929;48.008;10.882;2023-08-07T06:03:58;13.40;99.90
32476;DHT22;18929;48.008;10.882;2023-08-07T06:06:25;13.40;99.90
32476;DHT22;18929;48.008;10.882;2023-08-07T06:08:53;12.90;99.90
32476;DHT22;18929;48.008;10.882;2023-08-07T06:11:20;12.70;99.90
32476;DHT22;18929;48.008;10.882;2023-08-07T06:13:48;13.00;99.90
32476;DHT22;18929;48.008;10.882;2023-08-07T06:16:15;13.60;99.90
32476;DHT22;18929;48.008;10.882;2023-08-07T06:18:43;13.70;99.90
32476;DHT22;18929;48.008;10.882;2023-08-07T06:21:09;14.10;99.90
32476;DHT22;18929;48.008;10.882;2023-08-07T06:23:36;13.70;99.90
32476;DHT22;18929;48.008;10.882;2023-08-07T06:26:03;13.10;99.90
32476;DHT22;18929;48.008;10.882;2023-08-07T06:31:01;12.90;99.90
32476;DHT22;18929;48.008;10.882;2023-08-07T06:33:28;12.50;99.90
32476;DHT22;18929;48.008;10.882;2023-08-07T06:35:55;12.70;99.90
32476;DHT22;18929;48.008;10.882;2023-08-07T06:38:22;12.60;99.90
32476;DHT22;18929;48.008;10.882;2023-08-07T06:40:49;12.60;99.90
32476;DHT22;18929;48.008;10.882;2023-08-07T06:43:16;12.60;99.90
32476;DHT22;18929;48.008;10.882;2023-08-07T06:45:42;12.70;99.90
32476;DHT22;18929;48.008;10.882;2023-08-07T06:48:10;12.80;99.90
32476;DHT22;18929;48.008;10.882;2023-08-07T06:50:37;12.90;99.90
32476;DHT22;18929;48.008;10.882;2023-08-07T06:53:04;12.90;99.90
32476;DHT22;18929;48.008;10.882;2023-08-07T06:55:31;12.90;99.90
32476;DHT22;18929;48.008;10.882;2023-08-07T06:57:58;13.00;99.90
32476;DHT22;18929;48.008;10.882;2023-08-07T07:00:25;12.90;99.90
32476;DHT22;18929;48.008;10.882;2023-08-07T07:02:52;12.80;99.90
32476;DHT22;18929;48.008;10.882;2023-08-07T07:05:20;12.70;99.90
32476;DHT22;18929;48.008;10.882;2023-08-07T07:07:47;12.90;99.90
32476;DHT22;18929;48.008;10.882;2023-08-07T07:10:14;13.10;99.90
32476;DHT22;18929;48.008;10.882;2023-08-07T07:12:41;13.00;99.90
32476;DHT22;18929;48.008;10.882;2023-08-07T07:15:08;12.90;99.90
32476;DHT22;18929;48.008;10.882;2023-08-07T07:20:18;12.90;99.90
32476;DHT22;18929;48.008;10.882;2023-08-07T07:22:46;13.10;99.90
32476;DHT22;18929;48.008;10.882;2023-08-07T07:25:13;13.10;99.90
32476;DHT22;18929;48.008;10.882;2023-08-07T07:27:40;13.00;99.90
32476;DHT22;18929;48.008;10.882;2023-08-07T07:30:07;12.90;99.90
32476;DHT22;18929;48.008;10.882;2023-08-07T07:32:34;13.00;99.90
32476;DHT22;18929;48.008;10.882;2023-08-07T07:35:01;12.90;99.90
32476;DHT22;18929;48.008;10.882;2023-08-07T07:37:29;13.00;99.90
32476;DHT22;18929;48.008;10.882;2023-08-07T07:39:58;13.30;99.90
32476;DHT22;18929;48.008;10.882;2023-08-07T07:42:24;13.30;99.90
32476;DHT22;18929;48.008;10.882;2023-08-07T07:44:51;13.20;99.90
32476;DHT22;18929;48.008;10.882;2023-08-07T07:47:18;13.10;99.90
32476;DHT22;18929;48.008;10.882;2023-08-07T07:49:46;13.00;99.90
32476;DHT22;18929;48.008;10.882;2023-08-07T07:52:13;13.20;99.90
32476;DHT22;18929;48.008;10.882;2023-08-07T07:54:40;13.10;99.90
32476;DHT22;18929;48.008;10.882;2023-08-07T07:57:08;13.10;99.90
32476;DHT22;18929;48.008;10.882;2023-08-07T07:59:36;13.20;99.90
32476;DHT22;18929;48.008;10.882;2023-08-07T08:02:03;13.30;99.90
32476;DHT22;18929;48.008;10.882;2023-08-07T08:07:01;13.00;99.90
32476;DHT22;18929;48.008;10.882;2023-08-07T08:09:29;13.20;99.90
32476;DHT22;18929;48.008;10.882;2023-08-07T08:11:56;13.20;99.90
32476;DHT22;18929;48.008;10.882;2023-08-07T08:14:24;13.40;99.90
32476;DHT22;18929;48.008;10.882;2023-08-07T08:16:51;13.40;99.90
32476;DHT22;18929;48.008;10.882;2023-08-07T08:19:17;13.20;99.90
32476;DHT22;18929;48.008;10.882;2023-08-07T08:21:44;13.40;99.90
32476;DHT22;18929;48.008;10.882;2023-08-07T08:24:11;13.70;99.90
32476;DHT22;18929;48.008;10.882;2023-08-07T08:26:38;13.50;99.90
32476;DHT22;18929;48.008;10.882;2023-08-07T08:29:05;13.70;99.90
32476;DHT22;18929;48.008;10.882;2023-08-07T08:31:34;13.80;99.90
32476;DHT22;18929;48.008;10.882;2023-08-07T08:34:01;13.60;99.90
32476;DHT22;18929;48.008;10.882;2023-08-07T08:36:29;13.50;99.90
32476;DHT22;18929;48.008;10.882;2023-08-07T08:38:56;13.60;99.90
32476;DHT22;18929;48.008;10.882;2023-08-07T08:41:22;13.90;99.90
32476;DHT22;18929;48.008;10.882;2023-08-07T08:43:51;13.70;99.90
32476;DHT22;18929;48.008;10.882;2023-08-07T08:46:18;13.60;99.90
32476;DHT22;18929;48.008;10.882;2023-08-07T08:48:49;13.70;99.90
32476;DHT22;18929;48.008;10.882;2023-08-07T08:51:18;13.90;99.90
32476;DHT22;18929;48.008;10.882;2023-08-07T08:53:47;13.50;99.90
32476;DHT22;18929;48.008;10.882;2023-08-07T08:56:14;13.50;99.90
32476;DHT22;18929;48.008;10.882;2023-08-07T08:58:42;13.50;99.90
32476;DHT22;18929;48.008;10.882;2023-08-07T09:01:09;13.90;99.90
32476;DHT22;18929;48.008;10.882;2023-08-07T09:03:53;14.20;99.90
32476;DHT22;18929;48.008;10.882;2023-08-07T09:06:20;14.00;99.90
32476;DHT22;18929;48.008;10.882;2023-08-07T09:08:46;14.20;99.90
32476;DHT22;18929;48.008;10.882;2023-08-07T09:11:15;14.30;99.90
32476;DHT22;18929;48.008;10.882;2023-08-07T09:13:43;14.50;99.90
32476;DHT22;18929;48.008;10.882;2023-08-07T09:16:11;14.20;99.90
32476;DHT22;18929;48.008;10.882;2023-08-07T09:18:44;14.00;99.90
32476;DHT22;18929;48.008;10.882;2023-08-07T09:21:12;13.90;99.90
32476;DHT22;18929;48.008;10.882;2023-08-07T09:23:41;13.80;99.90
32476;DHT22;18929;48.008;10.882;2023-08-07T09:26:08;13.80;99.90
32476;DHT22;18929;48.008;10.882;2023-08-07T09:28:37;14.00;99.90
32476;DHT22;18929;48.008;10.882;2023-08-07T09:31:05;13.90;99.90
32476;DHT22;18929;48.008;10.882;2023-08-07T09:33:33;14.50;99.90
32476;DHT22;18929;48.008;10.882;2023-08-07T09:36:01;14.20;99.90
32476;DHT22;18929;48.008;10.882;2023-08-07T09:38:30;13.90;99.90
32476;DHT22;18929;48.008;10.882;2023-08-07T09:41:06;14.10;99.90
32476;DHT22;18929;48.008;10.882;2023-08-07T09:43:33;14.40;99.90
32476;DHT22;18929;48.008;10.882;2023-08-07T09:46:03;14.50;99.90
32476;DHT22;18929;48.008;10.882;2023-08-07T09:48:30;14.80;99.90
32476;DHT22;18929;48.008;10.882;2023-08-07T09:51:00;14.70;99.90
32476;DHT22;18929;48.008;10.882;2023-08-07T09:53:27;14.50;99.90
32476;DHT22;18929;48.008;10.882;2023-08-07T09:55:55;14.60;99.90
32476;DHT22;18929;48.008;10.882;2023-08-07T09:58:38;14.50;99.90
32476;DHT22;18929;48.008;10.882;2023-08-07T10:01:04;14.50;99.90
32476;DHT22;18929;48.008;10.882;2023-08-07T10:03:32;14.60;99.90
32476;DHT22;18929;48.008;10.882;2023-08-07T10:05:59;14.80;99.90
32476;DHT22;18929;48.008;10.882;2023-08-07T10:08:27;15.00;99.90
32476;DHT22;18929;48.008;10.882;2023-08-07T10:10:56;14.70;99.90
32476;DHT22;18929;48.008;10.882;2023-08-07T10:13:22;14.60;99.90
32476;DHT22;18929;48.008;10.882;2023-08-07T10:15:49;14.80;99.90
32476;DHT22;18929;48.008;10.882;2023-08-07T10:18:16;14.50;99.90
32476;DHT22;18929;48.008;10.882;2023-08-07T10:20:43;14.30;99.90
32476;DHT22;18929;48.008;10.882;2023-08-07T10:23:10;14.20;99.90
32476;DHT22;18929;48.008;10.882;2023-08-07T10:25:39;14.20;99.90
32476;DHT22;18929;48.008;10.882;2023-08-07T10:28:11;14.40;99.90
32476;DHT22;18929;48.008;10.882;2023-08-07T10:30:39;14.70;99.90
32476;DHT22;18929;48.008;10.882;2023-08-07T10:33:07;14.50;99.90
32476;DHT22;18929;48.008;10.882;2023-08-07T10:35:35;14.30;99.90
32476;DHT22;18929;48.008;10.882;2023-08-07T10:38:05;14.30;99.90
32476;DHT22;18929;48.008;10.882;2023-08-07T10:40:33;14.80;99.90
32476;DHT22;18929;48.008;10.882;2023-08-07T10:43:12;14.40;99.90
32476;DHT22;18929;48.008;10.882;2023-08-07T10:45:40;14.50;99.90
32476;DHT22;18929;48.008;10.882;2023-08-07T10:48:07;14.70;99.90
32476;DHT22;18929;48.008;10.882;2023-08-07T10:50:35;15.20;99.90
32476;DHT22;18929;48.008;10.882;2023-08-07T10:53:02;15.10;99.90
32476;DHT22;18929;48.008;10.882;2023-08-07T10:55:31;14.80;99.90
32476;DHT22;18929;48.008;10.882;2023-08-07T10:57:59;15.10;99.90
32476;DHT22;18929;48.008;10.882;2023-08-07T11:00:27;14.90;99.90
32476;DHT22;18929;48.008;10.882;2023-08-07T11:02:54;14.70;99.90
32476;DHT22;18929;48.008;10.882;2023-08-07T11:05:24;14.70;99.90
32476;DHT22;18929;48.008;10.882;2023-08-07T11:07:51;15.00;99.90
32476;DHT22;18929;48.008;10.882;2023-08-07T11:10:20;15.10;99.90
32476;DHT22;18929;48.008;10.882;2023-08-07T11:12:47;15.20;99.90
32476;DHT22;18929;48.008;10.882;2023-08-07T11:15:15;15.30;99.90
32476;DHT22;18929;48.008;10.882;2023-08-07T11:17:43;15.60;99.90
32476;DHT22;18929;48.008;10.882;2023-08-07T11:20:11;15.50;99.90
32476;DHT22;18929;48.008;10.882;2023-08-07T11:22:38;15.40;99.90
32476;DHT22;18929;48.008;10.882;2023-08-07T11:25:07;15.30;99.90
32476;DHT22;18929;48.008;10.882;2023-08-07T11:27:37;15.50;99.90
32476;DHT22;18929;48.008;10.882;2023-08-07T11:30:04;15.50;99.90
32476;DHT22;18929;48.008;10.882;2023-08-07T11:32:31;15.40;99.90
32476;DHT22;18929;48.008;10.882;2023-08-07T11:34:59;15.50;99.90
32476;DHT22;18929;48.008;10.882;2023-08-07T11:37:28;15.90;99.90
32476;DHT22;18929;48.008;10.882;2023-08-07T11:39:59;15.80;99.90
32476;DHT22;18929;48.008;10.882;2023-08-07T11:42:33;16.10;99.90
32476;DHT22;18929;48.008;10.882;2023-08-07T11:44:59;15.90;99.90
32476;DHT22;18929;48.008;10.882;2023-08-07T11:47:28;16.00;99.90
32476;DHT22;18929;48.008;10.882;2023-08-07T11:49:55;16.00;99.90
32476;DHT22;18929;48.008;10.882;2023-08-07T11:52:23;15.90;99.90
32476;DHT22;18929;48.008;10.882;2023-08-07T11:54:52;16.20;99.90
32476;DHT22;18929;48.008;10.882;2023-08-07T11:57:19;16.00;99.90
32476;DHT22;18929;48.008;10.882;2023-08-07T11:59:47;15.80;99.90
32476;DHT22;18929;48.008;10.882;2023-08-07T12:02:14;15.80;99.90
32476;DHT22;18929;48.008;10.882;2023-08-07T12:07:29;15.70;99.90
32476;DHT22;18929;48.008;10.882;2023-08-07T12:09:56;15.70;99.90
32476;DHT22;18929;48.008;10.882;2023-08-07T12:12:23;15.70;99.90
32476;DHT22;18929;48.008;10.882;2023-08-07T12:14:52;15.60;99.90
32476;DHT22;18929;48.008;10.882;2023-08-07T12:17:19;15.90;99.90
32476;DHT22;18929;48.008;10.882;2023-08-07T12:19:45;16.00;99.90
32476;DHT22;18929;48.008;10.882;2023-08-07T12:22:12;15.70;99.90
32476;DHT22;18929;48.008;10.882;2023-08-07T12:24:41;15.50;99.90
32476;DHT22;18929;48.008;10.882;2023-08-07T12:27:09;15.50;99.90
32476;DHT22;18929;48.008;10.882;2023-08-07T12:29:36;15.60;99.90
32476;DHT22;18929;48.008;10.882;2023-08-07T12:32:03;15.70;99.90
32476;DHT22;18929;48.008;10.882;2023-08-07T12:34:30;16.00;99.90
32476;DHT22;18929;48.008;10.882;2023-08-07T12:37:00;15.90;99.90
32476;DHT22;18929;48.008;10.882;2023-08-07T12:39:26;16.10;99.90
32476;DHT22;18929;48.008;10.882;2023-08-07T12:41:54;15.90;99.90
32476;DHT22;18929;48.008;10.882;2023-08-07T12:44:23;16.30;99.90
32476;DHT22;18929;48.008;10.882;2023-08-07T12:46:50;17.20;99.90
32476;DHT22;18929;48.008;10.882;2023-08-07T12:49:35;17.40;99.90
32476;DHT22;18929;48.008;10.882;2023-08-07T12:52:02;18.30;99.90
32476;DHT22;18929;48.008;10.882;2023-08-07T12:54:29;18.50;99.90
32476;DHT22;18929;48.008;10.882;2023-08-07T12:56:57;18.80;99.90
32476;DHT22;18929;48.008;10.882;2023-08-07T12:59:24;18.40;99.90
32476;DHT22;18929;48.008;10.882;2023-08-07T13:01:51;18.50;99.90
32476;DHT22;18929;48.008;10.882;2023-08-07T13:04:18;18.40;99.90
32476;DHT22;18929;48.008;10.882;2023-08-07T13:06:45;18.30;99.90
32476;DHT22;18929;48.008;10.882;2023-08-07T13:09:14;18.60;99.90
32476;DHT22;18929;48.008;10.882;2023-08-07T13:11:41;17.70;99.90
32476;DHT22;18929;48.008;10.882;2023-08-07T13:14:09;18.60;99.90
32476;DHT22;18929;48.008;10.882;2023-08-07T13:16:36;18.90;99.90
32476;DHT22;18929;48.008;10.882;2023-08-07T13:19:03;19.10;99.90
32476;DHT22;18929;48.008;10.882;2023-08-07T13:21:30;18.90;99.90
32476;DHT22;18929;48.008;10.882;2023-08-07T13:23:56;18.60;99.90
32476;DHT22;18929;48.008;10.882;2023-08-07T13:26:23;18.80;99.90
32476;DHT22;18929;48.008;10.882;2023-08-07T13:28:50;18.60;99.90
32476;DHT22;18929;48.008;10.882;2023-08-07T13:31:18;19.00;99.90
32476;DHT22;18929;48.008;10.882;2023-08-07T13:33:45;19.20;99.90
32476;DHT22;18929;48.008;10.882;2023-08-07T13:36:12;18.90;99.90
32476;DHT22;18929;48.008;10.882;2023-08-07T13:38:39;18.80;99.90
32476;DHT22;18929;48.008;10.882;2023-08-07T13:41:06;18.10;99.90
32476;DHT22;18929;48.008;10.882;2023-08-07T13:43:33;18.40;99.90
32476;DHT22;18929;48.008;10.882;2023-08-07T13:45:59;17.90;99.90
32476;DHT22;18929;48.008;10.882;2023-08-07T13:48:28;18.20;99.90
32476;DHT22;18929;48.008;10.882;2023-08-07T13:50:55;17.70;99.90
32476;DHT22;18929;48.008;10.882;2023-08-07T13:53:21;17.90;99.90
32476;DHT22;18929;48.008;10.882;2023-08-07T13:55:54;18.00;99.90
32476;DHT22;18929;48.008;10.882;2023-08-07T13:58:21;18.20;99.90
32476;DHT22;18929;48.008;10.882;2023-08-07T14:00:48;19.00;99.90
32476;DHT22;18929;48.008;10.882;2023-08-07T14:03:14;18.60;99.90
32476;DHT22;18929;48.008;10.882;2023-08-07T14:05:43;18.10;99.90
32476;DHT22;18929;48.008;10.882;2023-08-07T14:08:09;18.00;99.90
32476;DHT22;18929;48.008;10.882;2023-08-07T14:13:08;18.40;99.90
32476;DHT22;18929;48.008;10.882;2023-08-07T14:15:35;18.20;99.90
32476;DHT22;18929;48.008;10.882;2023-08-07T14:18:02;18.10;99.90
32476;DHT22;18929;48.008;10.882;2023-08-07T14:20:29;18.10;99.90
32476;DHT22;18929;48.008;10.882;2023-08-07T14:22:57;18.50;99.90
32476;DHT22;18929;48.008;10.882;2023-08-07T14:25:24;17.70;99.90
32476;DHT22;18929;48.008;10.882;2023-08-07T14:27:51;18.10;99.90
32476;DHT22;18929;48.008;10.882;2023-08-07T14:30:19;17.70;99.90
32476;DHT22;18929;48.008;10.882;2023-08-07T14:32:46;17.80;99.90
32476;DHT22;18929;48.008;10.882;2023-08-07T14:35:13;18.00;99.90
32476;DHT22;18929;48.008;10.882;2023-08-07T14:37:40;18.10;99.90
32476;DHT22;18929;48.008;10.882;2023-08-07T14:40:08;18.30;99.90
32476;DHT22;18929;48.008;10.882;2023-08-07T14:42:35;18.80;99.90
32476;DHT22;18929;48.008;10.882;2023-08-07T14:45:02;18.10;99.90
32476;DHT22;18929;48.008;10.882;2023-08-07T14:47:29;18.30;99.90
32476;DHT22;18929;48.008;10.882;2023-08-07T14:49:56;18.70;99.90
32476;DHT22;18929;48.008;10.882;2023-08-07T14:52:22;19.10;99.90
32476;DHT22;18929;48.008;10.882;2023-08-07T14:54:49;19.10;99.90
32476;DHT22;18929;48.008;10.882;2023-08-07T14:57:17;18.90;99.90
32476;DHT22;18929;48.008;10.882;2023-08-07T14:59:44;19.20;99.90
32476;DHT22;18929;48.008;10.882;2023-08-07T15:02:11;19.50;99.90
32476;DHT22;18929;48.008;10.882;2023-08-07T15:04:38;19.60;99.90
32476;DHT22;18929;48.008;10.882;2023-08-07T15:07:05;19.60;99.90
32476;DHT22;18929;48.008;10.882;2023-08-07T15:09:31;19.50;99.90
32476;DHT22;18929;48.008;10.882;2023-08-07T15:11:58;19.50;99.90
32476;DHT22;18929;48.008;10.882;2023-08-07T15:14:26;19.30;99.90
32476;DHT22;18929;48.008;10.882;2023-08-07T15:16:53;19.20;99.90
32476;DHT22;18929;48.008;10.882;2023-08-07T15:19:20;19.10;99.90
32476;DHT22;18929;48.008;10.882;2023-08-07T15:21:47;19.00;99.90
32476;DHT22;18929;48.008;10.882;2023-08-07T15:24:16;19.30;99.90
32476;DHT22;18929;48.008;10.882;2023-08-07T15:26:43;19.30;99.90
32476;DHT22;18929;48.008;10.882;2023-08-07T15:29:11;19.20;99.90
32476;DHT22;18929;48.008;10.882;2023-08-07T15:31:39;19.00;99.90